createdAt,value
2022-08-05T00:01:36.135Z,99.90
2022-08-05T00:04:16.540Z,99.90
2022-08-05T00:06:43.579Z,99.90
2022-08-05T00:09:12.892Z,99.90
2022-08-05T00:11:47.397Z,99.90
2022-08-05T00:14:16.872Z,99.90
2022-08-05T00:16:52.971Z,99.90
2022-08-05T00:19:23.470Z,99.90
2022-08-05T00:21:52.490Z,99.90
2022-08-05T00:24:24.603Z,99.90
2022-08-05T00:26:58.623Z,99.90
2022-08-05T00:29:27.609Z,99.90
2022-08-05T00:32:12.853Z,99.90
2022-08-05T00:35:03.582Z,99.90
2022-08-05T00:37:51.254Z,99.90
2022-08-05T00:40:26.991Z,99.90
2022-08-05T00:43:01.066Z,99.90
2022-08-05T00:45:38.970Z,99.90
2022-08-05T00:48:12.599Z,99.90
2022-08-05T00:50:44.236Z,99.90
2022-08-05T00:54:01.161Z,99.90
2022-08-05T00:56:05.665Z,99.90
2022-08-05T00:58:35.291Z,99.90
2022-08-05T01:01:06.050Z,99.90
2022-08-05T01:03:37.891Z,99.90
2022-08-05T01:06:05.719Z,99.90
2022-08-05T01:08:43.418Z,99.90
2022-08-05T01:11:22.191Z,99.90
2022-08-05T01:14:08.933Z,99.90
2022-08-05T01:17:02.527Z,99.90
2022-08-05T01:20:02.025Z,99.90
2022-08-05T01:23:14.567Z,99.90
2022-08-05T01:26:04.608Z,99.90
2022-08-05T01:28:45.387Z,99.90
2022-08-05T01:31:23.170Z,99.90
2022-08-05T01:34:09.766Z,99.90
2022-08-05T01:36:47.124Z,99.90
2022-08-05T01:39:45.525Z,99.90
2022-08-05T01:42:05.456Z,99.90
2022-08-05T01:44:35.475Z,99.90
2022-08-05T01:47:05.112Z,99.90
2022-08-05T01:50:00.287Z,99.90
2022-08-05T01:52:22.210Z,99.90
2022-08-05T01:54:57.993Z,99.90
2022-08-05T01:58:29.498Z,99.90
2022-08-05T02:00:19.485Z,99.90
2022-08-05T02:03:03.738Z,99.90
2022-08-05T02:05:35.974Z,99.90
2022-08-05T02:08:04.915Z,99.90
2022-08-05T02:10:40.396Z,99.90
2022-08-05T02:13:16.160Z,99.90
2022-08-05T02:16:03.015Z,99.90
2022-08-05T02:18:41.970Z,99.90
2022-08-05T02:21:22.696Z,99.90
2022-08-05T02:23:53.743Z,99.90
2022-08-05T02:26:54.598Z,99.90
2022-08-05T02:29:58.060Z,99.90
2022-08-05T02:32:23.793Z,99.90
2022-08-05T02:35:09.811Z,99.90
2022-08-05T02:37:46.553Z,99.90
2022-08-05T02:40:21.293Z,99.90
2022-08-05T02:42:52.750Z,99.90
2022-08-05T02:45:23.857Z,99.90
2022-08-05T02:48:07.458Z,99.90
2022-08-05T02:50:43.704Z,99.90
2022-08-05T02:53:16.000Z,99.90
2022-08-05T02:55:52.142Z,99.90
2022-08-05T02:58:23.194Z,99.90
2022-08-05T03:01:02.285Z,99.90
2022-08-05T03:03:34.086Z,99.90
2022-08-05T03:06:53.645Z,99.90
2022-08-05T03:09:08.087Z,99.90
2022-08-05T03:11:54.545Z,99.90
2022-08-05T03:14:22.288Z,99.90
2022-08-05T03:16:49.562Z,99.90
2022-08-05T03:19:33.941Z,99.90
2022-08-05T03:22:05.034Z,99.90
2022-08-05T03:24:46.912Z,99.90
2022-08-05T03:27:15.906Z,99.90
2022-08-05T03:29:45.283Z,99.90
2022-08-05T03:32:31.454Z,99.90
2022-08-05T03:34:59.436Z,99.90
2022-08-05T03:37:27.849Z,99.90
2022-08-05T03:40:01.436Z,99.90
2022-08-05T03:42:32.886Z,99.90
2022-08-05T03:45:21.489Z,99.90
2022-08-05T03:47:50.173Z,99.90
2022-08-05T03:50:18.040Z,99.90
2022-08-05T03:55:53.360Z,99.90
2022-08-05T03:56:11.648Z,99.90
2022-08-05T03:58:41.143Z,99.90
2022-08-05T04:01:11.272Z,99.90
2022-08-05T04:03:42.434Z,99.90
2022-08-05T04:06:31.027Z,99.90
2022-08-05T04:08:59.275Z,99.90
2022-08-05T04:11:42.571Z,99.90
2022-08-05T04:14:17.888Z,99.90
2022-08-05T04:16:45.613Z,99.90
2022-08-05T04:19:13.422Z,99.90
2022-08-05T04:22:05.259Z,99.90
2022-08-05T04:24:28.537Z,99.90
2022-08-05T04:26:58.196Z,99.90
2022-08-05T04:29:25.233Z,99.90
2022-08-05T04:31:54.241Z,99.90
2022-08-05T04:34:32.454Z,99.90
2022-08-05T04:37:00.184Z,99.90
2022-08-05T04:39:28.043Z,99.90
2022-08-05T04:41:55.420Z,99.90
2022-08-05T04:44:29.449Z,99.90
2022-08-05T04:47:09.458Z,99.90
2022-08-05T04:50:01.588Z,99.90
2022-08-05T04:52:28.495Z,99.90
2022-08-05T04:54:56.943Z,99.90
2022-08-05T04:57:28.987Z,99.90
2022-08-05T04:59:58.625Z,99.90
2022-08-05T05:02:36.105Z,99.90
2022-08-05T05:05:26.185Z,99.90
2022-08-05T05:08:01.720Z,99.90
2022-08-05T05:10:30.820Z,99.90
2022-08-05T05:13:00.580Z,99.90
2022-08-05T05:15:59.166Z,99.90
2022-08-05T05:18:28.214Z,99.90
2022-08-05T05:20:55.889Z,99.90
2022-08-05T05:23:25.516Z,99.90
2022-08-05T05:25:52.470Z,99.90
2022-08-05T05:28:19.860Z,99.90
2022-08-05T05:30:49.828Z,99.90
2022-08-05T05:33:17.523Z,99.90
2022-08-05T05:35:47.502Z,99.90
2022-08-05T05:38:22.171Z,99.90
2022-08-05T05:40:51.560Z,99.90
2022-08-05T05:43:57.524Z,99.90
2022-08-05T05:46:17.246Z,99.90
2022-08-05T05:48:46.331Z,99.90
2022-08-05T05:51:27.866Z,99.90
2022-08-05T05:53:59.485Z,99.90
2022-08-05T05:56:34.466Z,99.90
2022-08-05T05:59:05.656Z,99.90
2022-08-05T06:01:37.136Z,99.90
2022-08-05T06:04:11.945Z,99.90
2022-08-05T06:06:47.549Z,99.90
2022-08-05T06:09:26.530Z,99.90
2022-08-05T06:12:05.356Z,99.90
2022-08-05T06:14:33.319Z,99.90
2022-08-05T06:17:22.346Z,99.90
2022-08-05T06:19:57.080Z,99.90
2022-08-05T06:22:33.765Z,99.90
2022-08-05T06:25:25.084Z,99.40
2022-08-05T06:28:10.965Z,98.60
2022-08-05T06:30:36.863Z,98.10
2022-08-05T06:33:03.816Z,97.40
2022-08-05T06:36:03.715Z,95.40
2022-08-05T06:38:18.112Z,95.00
2022-08-05T06:41:03.702Z,93.30
2022-08-05T06:43:57.576Z,91.90
2022-08-05T06:46:18.205Z,91.00
2022-08-05T06:48:55.816Z,89.90
2022-08-05T06:51:30.044Z,88.20
2022-08-05T06:53:59.894Z,85.20
2022-08-05T06:56:28.158Z,82.70
2022-08-05T06:58:55.553Z,80.50
2022-08-05T07:01:27.482Z,81.90
2022-08-05T07:03:58.822Z,78.50
2022-08-05T07:06:35.257Z,77.50
2022-08-05T07:09:03.730Z,75.00
2022-08-05T07:11:37.164Z,73.00
2022-08-05T07:14:29.269Z,73.00
2022-08-05T07:18:02.047Z,69.30
2022-08-05T07:22:41.946Z,68.30
2022-08-05T07:25:53.829Z,66.20
2022-08-05T07:28:03.825Z,64.10
2022-08-05T07:30:38.280Z,62.20
2022-08-05T07:33:15.498Z,62.20
2022-08-05T07:36:03.519Z,61.70
2022-08-05T07:38:33.271Z,60.00
2022-08-05T07:42:08.399Z,61.00
2022-08-05T07:43:59.802Z,60.90
2022-08-05T07:46:28.695Z,58.70
2022-08-05T07:49:02.529Z,56.70
2022-08-05T07:51:37.195Z,55.50
2022-08-05T07:54:08.484Z,55.50
2022-08-05T07:57:00.759Z,57.40
2022-08-05T07:59:38.967Z,57.50
2022-08-05T08:02:10.635Z,55.00
2022-08-05T08:18:50.220Z,53.90
2022-08-05T08:21:17.962Z,52.50
2022-08-05T08:24:01.238Z,52.90
2022-08-05T08:26:32.223Z,51.30
2022-08-05T10:01:02.198Z,46.40
2022-08-05T10:26:05.690Z,41.60
2022-08-05T10:28:36.597Z,46.20
2022-08-05T10:32:50.500Z,48.60
2022-08-05T10:33:54.218Z,48.70
2022-08-05T10:36:23.575Z,49.40
2022-08-05T10:39:10.090Z,52.40
2022-08-05T10:42:02.287Z,53.50
2022-08-05T10:44:32.163Z,54.00
2022-08-05T10:47:10.174Z,54.80
2022-08-05T10:50:31.961Z,54.70
2022-08-05T10:52:54.009Z,55.40
2022-08-05T10:55:26.737Z,55.80
2022-08-05T10:58:21.328Z,57.60
2022-08-05T11:00:55.343Z,57.90
2022-08-05T11:03:30.286Z,56.30
2022-08-05T11:06:16.135Z,56.60
2022-08-05T11:20:47.430Z,56.70
2022-08-05T11:24:14.747Z,56.90
2022-08-05T11:27:29.202Z,57.20
2022-08-05T11:30:16.377Z,57.20
2022-08-05T11:32:43.301Z,59.70
2022-08-05T11:36:07.992Z,55.70
2022-08-05T11:38:45.997Z,56.30
2022-08-05T11:41:56.223Z,58.60
2022-08-05T11:44:12.806Z,58.30
2022-08-05T11:47:14.061Z,57.40
2022-08-05T11:49:49.700Z,58.70
2022-08-05T11:52:29.323Z,59.30
2022-08-05T11:54:58.818Z,58.50
2022-08-05T11:58:08.579Z,60.10
2022-08-05T12:00:30.232Z,59.20
2022-08-05T12:02:57.977Z,55.50
2022-08-05T12:05:36.368Z,55.90
2022-08-05T12:08:09.864Z,56.80
2022-08-05T12:10:45.411Z,56.90
2022-08-05T12:13:28.130Z,57.30
2022-08-05T12:16:14.149Z,57.20
2022-08-05T12:18:48.663Z,57.70
2022-08-05T12:21:26.769Z,56.40
2022-08-05T12:24:08.001Z,57.30
2022-08-05T12:26:37.963Z,57.90
2022-08-05T12:29:17.859Z,57.70
2022-08-05T12:31:55.572Z,57.70
2022-08-05T12:34:28.565Z,56.70
2022-08-05T12:36:58.203Z,57.30
2022-08-05T12:39:34.634Z,55.90
2022-08-05T12:42:17.256Z,57.00
2022-08-05T12:44:45.335Z,56.80
2022-08-05T12:47:17.277Z,53.50
2022-08-05T12:50:04.719Z,55.70
2022-08-05T12:52:42.497Z,54.30
2022-08-05T12:55:23.878Z,54.40
2022-08-05T12:58:38.804Z,54.20
2022-08-05T13:02:02.287Z,55.00
2022-08-05T13:03:32.523Z,54.90
2022-08-05T13:06:01.377Z,56.00
2022-08-05T13:08:32.271Z,53.10
2022-08-05T13:11:02.271Z,55.20
2022-08-05T13:14:06.342Z,55.10
2022-08-05T13:16:19.644Z,57.70
2022-08-05T13:18:58.674Z,57.30
2022-08-05T13:21:27.870Z,55.20
2022-08-05T13:24:05.811Z,56.30
2022-08-05T13:26:36.838Z,55.90
2022-08-05T13:29:05.183Z,54.20
2022-08-05T13:32:03.766Z,53.90
2022-08-05T13:34:25.997Z,53.70
2022-08-05T13:36:54.011Z,55.60
2022-08-05T13:40:13.682Z,54.30
2022-08-05T13:42:14.434Z,54.50
2022-08-05T13:44:46.375Z,56.40
2022-08-05T13:47:35.230Z,56.10
2022-08-05T13:50:06.440Z,55.80
2022-08-05T13:52:36.723Z,55.70
2022-08-05T13:55:07.656Z,55.30
2022-08-05T13:57:51.184Z,54.00
2022-08-05T14:00:26.825Z,55.00
2022-08-05T14:02:56.987Z,54.40
2022-08-05T14:05:48.253Z,54.70
2022-08-05T14:08:21.421Z,52.40
2022-08-05T14:11:03.282Z,49.60
2022-08-05T14:13:42.165Z,48.30
2022-08-05T14:16:11.648Z,44.90
2022-08-05T14:18:44.072Z,44.40
2022-08-05T14:22:08.427Z,43.20
2022-08-05T14:23:58.332Z,45.00
2022-08-05T14:26:35.805Z,43.60
2022-08-05T14:29:16.018Z,44.00
2022-08-05T14:32:02.356Z,44.80
2022-08-05T14:34:35.668Z,44.50
2022-08-05T14:37:04.506Z,44.00
2022-08-05T14:39:49.821Z,44.00
2022-08-05T14:42:21.758Z,43.10
2022-08-05T14:44:49.428Z,43.60
2022-08-05T14:47:16.974Z,43.30
2022-08-05T14:50:15.644Z,44.60
2022-08-05T14:52:53.196Z,44.20
2022-08-05T14:55:38.768Z,43.30
2022-08-05T14:58:10.956Z,44.40
2022-08-05T15:00:39.580Z,44.50
2022-08-05T15:03:26.316Z,45.00
2022-08-05T15:06:07.784Z,46.20
2022-08-05T15:08:59.517Z,45.20
2022-08-05T15:11:51.507Z,46.40
2022-08-05T15:14:33.964Z,48.00
2022-08-05T15:17:03.767Z,49.00
2022-08-05T15:19:31.385Z,50.80
2022-08-05T15:22:01.191Z,52.00
2022-08-05T15:24:29.612Z,52.20
2022-08-05T15:26:57.756Z,52.80
2022-08-05T15:29:30.325Z,53.30
2022-08-05T15:32:02.211Z,54.20
2022-08-05T15:34:33.197Z,55.90
2022-08-05T15:37:06.530Z,55.20
2022-08-05T15:41:01.106Z,55.60
2022-08-05T15:42:58.254Z,56.00
2022-08-05T15:45:15.992Z,56.90
2022-08-05T15:47:44.378Z,56.30
2022-08-05T15:50:15.328Z,57.80
2022-08-05T15:52:52.642Z,57.20
2022-08-05T15:55:25.008Z,57.40
2022-08-05T15:58:16.869Z,57.70
2022-08-05T16:01:03.492Z,58.30
2022-08-05T16:03:33.843Z,58.20
2022-08-05T16:06:02.271Z,57.90
2022-08-05T16:08:30.413Z,57.30
2022-08-05T16:10:58.697Z,58.40
2022-08-05T16:13:34.486Z,58.00
2022-08-05T16:16:03.295Z,58.50
2022-08-05T16:18:32.962Z,58.40
2022-08-05T16:21:04.374Z,58.20
2022-08-05T16:23:53.334Z,58.80
2022-08-05T16:26:26.297Z,58.20
2022-08-05T16:28:54.823Z,58.70
2022-08-05T16:31:22.566Z,59.40
2022-08-05T16:33:52.175Z,60.10
2022-08-05T16:36:23.879Z,60.30
2022-08-05T16:38:54.931Z,59.80
2022-08-05T16:42:14.654Z,60.30
2022-08-05T16:44:11.995Z,60.60
2022-08-05T16:46:41.070Z,61.50
2022-08-05T16:49:10.000Z,61.50
2022-08-05T16:51:42.916Z,62.20
2022-08-05T16:54:25.811Z,61.40
2022-08-05T16:56:56.049Z,62.10
2022-08-05T16:59:23.322Z,62.40
2022-08-05T17:01:54.063Z,62.20
2022-08-05T17:04:27.345Z,62.70
2022-08-05T17:06:56.879Z,62.70
2022-08-05T17:09:25.169Z,62.70
2022-08-05T17:11:59.282Z,63.10
2022-08-05T17:14:36.919Z,63.40
2022-08-05T17:17:06.124Z,64.10
2022-08-05T17:19:33.872Z,64.40
2022-08-05T17:22:01.342Z,64.60
2022-08-05T17:24:38.514Z,65.50
2022-08-05T17:27:09.463Z,66.00
2022-08-05T17:29:40.782Z,66.10
2022-08-05T17:32:17.178Z,66.20
2022-08-05T17:34:49.087Z,66.20
2022-08-05T17:37:39.377Z,66.80
2022-08-05T17:40:12.418Z,66.60
2022-08-05T17:42:49.873Z,66.60
2022-08-05T17:45:20.596Z,66.90
2022-08-05T17:47:53.879Z,67.30
2022-08-05T17:50:28.654Z,67.60
2022-08-05T17:53:02.036Z,68.10
2022-08-05T17:55:38.045Z,68.00
2022-08-05T17:58:12.648Z,68.40
2022-08-05T18:00:47.719Z,68.80
2022-08-05T18:03:58.678Z,68.90
2022-08-05T18:06:12.160Z,68.50
2022-08-05T18:08:46.172Z,68.80
2022-08-05T18:11:23.831Z,69.40
2022-08-05T18:14:07.134Z,69.60
2022-08-05T18:16:51.205Z,69.40
2022-08-05T18:19:22.484Z,69.50
2022-08-05T18:22:08.286Z,69.90
2022-08-05T18:24:36.682Z,70.70
2022-08-05T18:27:04.006Z,72.00
2022-08-05T18:29:40.999Z,72.60
2022-08-05T18:32:12.715Z,73.60
2022-08-05T18:34:43.318Z,72.40
2022-08-05T18:37:12.570Z,72.80
2022-08-05T18:40:33.715Z,73.10
2022-08-05T18:42:30.968Z,73.40
2022-08-05T18:44:57.910Z,74.20
2022-08-05T18:47:27.123Z,74.60
2022-08-05T18:50:15.761Z,75.40
2022-08-05T18:52:50.734Z,76.20
2022-08-05T18:55:20.174Z,77.50
2022-08-05T18:57:52.854Z,78.80
2022-08-05T19:00:27.232Z,79.70
2022-08-05T19:02:56.961Z,79.90
2022-08-05T19:06:13.003Z,80.00
2022-08-05T19:08:12.109Z,80.70
2022-08-05T19:10:41.174Z,81.30
2022-08-05T19:13:12.260Z,82.10
2022-08-05T19:15:57.389Z,83.30
2022-08-05T19:18:27.588Z,84.50
2022-08-05T19:20:55.792Z,85.40
2022-08-05T19:24:06.902Z,86.20
2022-08-05T19:26:11.374Z,87.10
2022-08-05T19:28:42.407Z,88.20
2022-08-05T19:31:13.122Z,88.80
2022-08-05T19:33:48.722Z,88.90
2022-08-05T19:36:29.399Z,89.70
2022-08-05T19:38:58.863Z,90.30
2022-08-05T19:41:58.557Z,90.60
2022-08-05T19:44:19.004Z,90.60
2022-08-05T19:46:46.660Z,90.90
2022-08-05T19:49:17.094Z,91.10
2022-08-05T19:52:08.741Z,91.30
2022-08-05T19:54:34.979Z,91.60
2022-08-05T19:57:06.460Z,91.80
2022-08-05T19:59:54.727Z,92.00
2022-08-05T20:02:27.981Z,92.20
2022-08-05T20:04:58.726Z,92.70
2022-08-05T20:07:46.022Z,93.00
2022-08-05T20:10:14.810Z,93.60
2022-08-05T20:12:47.568Z,94.90
2022-08-05T20:15:48.529Z,96.50
2022-08-05T20:18:10.723Z,98.00
2022-08-05T20:20:56.849Z,99.50
2022-08-05T20:23:40.737Z,99.90
2022-08-05T20:26:16.192Z,99.90
2022-08-05T20:28:50.804Z,99.90
2022-08-05T20:31:21.653Z,99.90
2022-08-05T20:33:55.812Z,99.90
2022-08-05T20:36:24.215Z,99.80
2022-08-05T20:38:53.695Z,99.90
2022-08-05T20:41:27.467Z,99.80
2022-08-05T20:44:17.074Z,99.90
2022-08-05T20:46:48.090Z,99.90
2022-08-05T20:49:15.348Z,99.90
2022-08-05T20:51:53.758Z,99.90
2022-08-05T20:54:21.485Z,99.90
2022-08-05T20:56:48.982Z,99.90
2022-08-05T20:59:26.511Z,99.90
2022-08-05T21:01:57.293Z,99.90
2022-08-05T21:04:26.849Z,99.90
2022-08-05T21:06:55.075Z,99.90
2022-08-05T21:09:22.890Z,99.90
2022-08-05T21:12:07.621Z,99.90
2022-08-05T21:14:38.094Z,99.90
2022-08-05T21:17:06.023Z,99.90
2022-08-05T21:19:46.864Z,99.90
2022-08-05T21:22:21.865Z,99.90
2022-08-05T21:24:52.399Z,99.90
2022-08-05T21:27:25.295Z,99.90
2022-08-05T21:29:55.492Z,99.90
2022-08-05T21:32:27.919Z,99.90
2022-08-05T21:35:08.851Z,99.90
2022-08-05T21:37:47.601Z,99.90
2022-08-05T21:40:21.919Z,99.90
2022-08-05T21:42:52.040Z,99.90
2022-08-05T21:45:24.076Z,99.90
2022-08-05T21:47:55.985Z,99.90
2022-08-05T21:50:25.630Z,99.90
2022-08-05T21:52:53.329Z,99.90
2022-08-05T21:56:01.519Z,99.90
2022-08-05T21:58:10.338Z,99.90
2022-08-05T22:00:40.124Z,99.90
2022-08-05T22:03:09.756Z,99.90
2022-08-05T22:05:48.762Z,99.90
2022-08-05T22:08:22.066Z,99.90
2022-08-05T22:10:51.567Z,99.90
2022-08-05T22:14:19.920Z,99.90
2022-08-05T22:16:32.320Z,99.90
2022-08-05T22:18:58.689Z,99.90
2022-08-05T22:21:26.131Z,99.90
2022-08-05T22:24:13.224Z,99.90
2022-08-05T22:28:08.219Z,99.90
2022-08-05T22:30:21.553Z,99.90
2022-08-05T22:32:50.715Z,99.90
2022-08-05T22:35:22.284Z,99.90
2022-08-05T22:37:58.515Z,99.90
2022-08-05T22:40:26.994Z,99.90
2022-08-05T22:42:58.395Z,99.90
2022-08-05T22:45:26.559Z,99.90
2022-08-05T22:47:57.305Z,99.90
2022-08-05T22:50:27.705Z,99.90
2022-08-05T22:52:55.756Z,99.90
2022-08-05T22:55:24.013Z,99.90
2022-08-05T22:57:53.995Z,99.90
2022-08-05T23:00:23.333Z,99.90
2022-08-05T23:02:53.302Z,99.90
2022-08-05T23:05:22.385Z,99.90
2022-08-05T23:07:51.228Z,99.90
2022-08-05T23:10:24.030Z,99.90
2022-08-05T23:12:54.701Z,99.90
2022-08-05T23:15:29.444Z,99.90
2022-08-05T23:18:00.970Z,99.90
2022-08-05T23:20:37.225Z,99.90
2022-08-05T23:23:08.688Z,99.90
2022-08-05T23:25:51.258Z,99.90
2022-08-05T23:28:27.655Z,99.90
2022-08-05T23:31:16.118Z,99.90
2022-08-05T23:34:04.760Z,99.90
2022-08-05T23:36:39.857Z,99.90
2022-08-05T23:39:17.640Z,99.90
2022-08-05T23:41:59.540Z,99.90
2022-08-05T23:44:31.421Z,99.90
2022-08-05T23:46:59.990Z,99.90
2022-08-05T23:49:34.069Z,99.90
2022-08-05T23:52:21.972Z,99.90
2022-08-05T23:55:05.292Z,99.90
2022-08-05T23:57:34.419Z,99.90
